CCA6208 PAYA-KDWH
Flight info
| Callsign | CCA6208 |
|---|---|
| Flight time | N/A |
| Altitude | 35000 |
| Route | YAK HOLIE J501 BKA J195 ANN Q902 SEA J20 BEAMO J153 BKE J54 HOVEL Q154 KENTO J17 ABI J65 SAT J2 IAH |
| Aircraft | B772/H-V/N |
Departure
| Time | 2026-04-18 07:21 |
|---|---|
| Airport | Yakutat Airport (PAYA) |
Arrival
| Time | N/A |
|---|---|
| Airport | David Wayne Hooks Memorial Airport (KDWH) |
| Time | Latitude | Longitude | Altitude | Speed | Heading |
|---|---|---|---|---|---|
| 2026-04-18 07:17 | 59.51119 | -139.66417 | 47 ft | 0 kts | 135° |
| 2026-04-18 07:18 | 59.51119 | -139.66416 | 47 ft | 0 kts | 135° |
| 2026-04-18 07:21 | 59.51099 | -139.66377 | 47 ft | 30 kts | 135° |
| 2026-04-18 07:21 | 59.50684 | -139.65559 | 47 ft | 135 kts | 135° |
| 2026-04-18 07:21 | 59.49812 | -139.63840 | 210 ft | 208 kts | 135° |
| 2026-04-18 07:21 | 59.48750 | -139.61759 | 1358 ft | 219 kts | 136° |
| 2026-04-18 07:22 | 59.47641 | -139.59599 | 2793 ft | 226 kts | 137° |
| 2026-04-18 07:22 | 59.46505 | -139.57380 | 3776 ft | 236 kts | 138° |
| 2026-04-18 07:22 | 59.45320 | -139.55078 | 4576 ft | 249 kts | 139° |
| 2026-04-18 07:22 | 59.44023 | -139.52737 | 5535 ft | 255 kts | 141° |
| 2026-04-18 07:23 | 59.42678 | -139.50410 | 6612 ft | 258 kts | 142° |
| 2026-04-18 07:23 | 59.41307 | -139.48085 | 7702 ft | 260 kts | 143° |
| 2026-04-18 07:23 | 59.39913 | -139.45731 | 8664 ft | 267 kts | 143° |
| 2026-04-18 07:23 | 59.38508 | -139.43364 | 9610 ft | 272 kts | 144° |
| 2026-04-18 07:24 | 59.37049 | -139.40908 | 10471 ft | 282 kts | 144° |
| 2026-04-18 07:24 | 59.35515 | -139.38326 | 11090 ft | 299 kts | 144° |
| 2026-04-18 07:24 | 59.33882 | -139.35581 | 11638 ft | 319 kts | 144° |
| 2026-04-18 07:24 | 59.32133 | -139.32644 | 12148 ft | 340 kts | 144° |
| 2026-04-18 07:25 | 59.30283 | -139.29540 | 12694 ft | 359 kts | 144° |
| 2026-04-18 07:25 | 59.28374 | -139.26341 | 13331 ft | 373 kts | 144° |
| 2026-04-18 07:25 | 59.26357 | -139.22968 | 14093 ft | 384 kts | 144° |
| 2026-04-18 07:25 | 59.24302 | -139.19536 | 14934 ft | 392 kts | 144° |
| 2026-04-18 07:26 | 59.22207 | -139.16041 | 15792 ft | 398 kts | 144° |
| 2026-04-18 07:26 | 59.20106 | -139.12544 | 16625 ft | 405 kts | 144° |
| 2026-04-18 07:26 | 59.17944 | -139.08949 | 17465 ft | 410 kts | 145° |
| 2026-04-18 07:26 | 59.15761 | -139.05329 | 18279 ft | 416 kts | 145° |
| 2026-04-18 07:27 | 59.13536 | -139.01641 | 19094 ft | 421 kts | 145° |
| 2026-04-18 07:27 | 59.11291 | -138.97930 | 19883 ft | 426 kts | 145° |
| 2026-04-18 07:27 | 59.09003 | -138.94153 | 20640 ft | 431 kts | 146° |
| 2026-04-18 07:27 | 59.06705 | -138.90367 | 21374 ft | 437 kts | 146° |
| 2026-04-18 07:28 | 59.04392 | -138.86562 | 22074 ft | 442 kts | 146° |
| 2026-04-18 07:28 | 59.02010 | -138.82653 | 22816 ft | 447 kts | 146° |
| 2026-04-18 07:28 | 58.99612 | -138.78722 | 23517 ft | 452 kts | 146° |
| 2026-04-18 07:28 | 58.97192 | -138.74765 | 24178 ft | 458 kts | 145° |
| 2026-04-18 07:29 | 58.94736 | -138.70756 | 24837 ft | 463 kts | 145° |
| 2026-04-18 07:29 | 58.92258 | -138.66718 | 25496 ft | 467 kts | 144° |
| 2026-04-18 07:29 | 58.89779 | -138.62687 | 26139 ft | 472 kts | 144° |
| 2026-04-18 07:29 | 58.87245 | -138.58575 | 26774 ft | 476 kts | 144° |
| 2026-04-18 07:30 | 58.84692 | -138.54441 | 27389 ft | 481 kts | 143° |
| 2026-04-18 07:30 | 58.82104 | -138.50257 | 28014 ft | 485 kts | 143° |
| 2026-04-18 07:30 | 58.79506 | -138.46066 | 28630 ft | 488 kts | 143° |
| 2026-04-18 07:30 | 58.76887 | -138.41850 | 29194 ft | 492 kts | 142° |
| 2026-04-18 07:31 | 58.74276 | -138.37655 | 29726 ft | 496 kts | 142° |
| 2026-04-18 07:31 | 58.71604 | -138.33370 | 30161 ft | 502 kts | 142° |
| 2026-04-18 07:31 | 58.68903 | -138.29049 | 30583 ft | 506 kts | 142° |
| 2026-04-18 07:31 | 58.66168 | -138.24682 | 30957 ft | 511 kts | 142° |
| 2026-04-18 07:32 | 58.63426 | -138.20313 | 31351 ft | 515 kts | 142° |
| 2026-04-18 07:32 | 58.60688 | -138.15960 | 31749 ft | 518 kts | 142° |
| 2026-04-18 07:32 | 58.57894 | -138.11528 | 32100 ft | 522 kts | 142° |
| 2026-04-18 07:32 | 58.55082 | -138.07074 | 32404 ft | 525 kts | 142° |
| 2026-04-18 07:33 | 58.52252 | -138.02604 | 32775 ft | 528 kts | 142° |
| 2026-04-18 07:33 | 58.49425 | -137.98148 | 33200 ft | 527 kts | 142° |
| 2026-04-18 07:33 | 58.46614 | -137.93727 | 33654 ft | 527 kts | 142° |
| 2026-04-18 07:33 | 58.43776 | -137.89272 | 34070 ft | 527 kts | 142° |
| 2026-04-18 07:34 | 58.40944 | -137.84836 | 34481 ft | 527 kts | 142° |
| 2026-04-18 07:34 | 58.38106 | -137.80399 | 34873 ft | 527 kts | 142° |
| 2026-04-18 07:34 | 58.35264 | -137.75967 | 35132 ft | 527 kts | 142° |
| 2026-04-18 07:34 | 58.32415 | -137.71534 | 35138 ft | 526 kts | 142° |
| 2026-04-18 07:35 | 58.26746 | -137.62739 | 35132 ft | 524 kts | 142° |
| 2026-04-18 07:35 | 58.21114 | -137.54040 | 35134 ft | 524 kts | 142° |
| 2026-04-18 07:36 | 58.15443 | -137.45317 | 35135 ft | 524 kts | 142° |
| 2026-04-18 07:36 | 58.09762 | -137.36616 | 35135 ft | 524 kts | 142° |
| 2026-04-18 07:37 | 58.04119 | -137.28009 | 35136 ft | 524 kts | 142° |
| 2026-04-18 07:37 | 57.98425 | -137.19359 | 35136 ft | 524 kts | 142° |
| 2026-04-18 07:38 | 57.92729 | -137.10744 | 35136 ft | 524 kts | 142° |
| 2026-04-18 07:38 | 57.87072 | -137.02223 | 35136 ft | 524 kts | 142° |
| 2026-04-18 07:39 | 57.81373 | -136.93674 | 35136 ft | 524 kts | 143° |
| 2026-04-18 07:39 | 57.75653 | -136.85130 | 35134 ft | 524 kts | 143° |
| 2026-04-18 07:40 | 57.69952 | -136.76649 | 35133 ft | 524 kts | 143° |
| 2026-04-18 07:40 | 57.64257 | -136.68212 | 35132 ft | 524 kts | 143° |
| 2026-04-18 07:41 | 57.58531 | -136.59763 | 35113 ft | 524 kts | 143° |
| 2026-04-18 07:41 | 57.52803 | -136.51346 | 35112 ft | 523 kts | 143° |
| 2026-04-18 07:42 | 57.47114 | -136.43020 | 35116 ft | 524 kts | 143° |
| 2026-04-18 07:42 | 57.41376 | -136.34656 | 35073 ft | 523 kts | 143° |
| 2026-04-18 07:43 | 57.35628 | -136.26311 | 35078 ft | 523 kts | 143° |
| 2026-04-18 07:43 | 57.29925 | -136.18065 | 35081 ft | 523 kts | 143° |
| 2026-04-18 07:44 | 57.24168 | -136.09774 | 35061 ft | 523 kts | 143° |
| 2026-04-18 07:44 | 57.18406 | -136.01507 | 35063 ft | 523 kts | 143° |
| 2026-04-18 07:45 | 57.12679 | -135.93321 | 35063 ft | 523 kts | 143° |
| 2026-04-18 07:45 | 57.06974 | -135.84975 | 35051 ft | 523 kts | 142° |
| 2026-04-18 07:46 | 57.01235 | -135.76745 | 35056 ft | 523 kts | 143° |
| 2026-04-18 07:46 | 56.95497 | -135.68655 | 35055 ft | 523 kts | 143° |
| 2026-04-18 07:47 | 56.89727 | -135.60504 | 35053 ft | 523 kts | 143° |
| 2026-04-18 07:47 | 56.84391 | -135.51407 | 35055 ft | 524 kts | 133° |
| 2026-04-18 07:48 | 56.79802 | -135.41118 | 35053 ft | 524 kts | 127° |
| 2026-04-18 07:48 | 56.75513 | -135.30318 | 35054 ft | 525 kts | 126° |
| 2026-04-18 07:49 | 56.71180 | -135.19714 | 35055 ft | 524 kts | 128° |
| 2026-04-18 07:49 | 56.66681 | -135.09238 | 35055 ft | 524 kts | 128° |
| 2026-04-18 07:50 | 56.62196 | -134.98768 | 35055 ft | 524 kts | 128° |
| 2026-04-18 07:50 | 56.57707 | -134.88294 | 35053 ft | 524 kts | 128° |
| 2026-04-18 07:51 | 56.53236 | -134.77925 | 35053 ft | 524 kts | 128° |
| 2026-04-18 07:51 | 56.48727 | -134.67544 | 35053 ft | 524 kts | 128° |
| 2026-04-18 07:52 | 56.44203 | -134.57183 | 35053 ft | 524 kts | 129° |
| 2026-04-18 07:52 | 56.39663 | -134.46829 | 35053 ft | 524 kts | 129° |
| 2026-04-18 07:53 | 56.35892 | -134.38253 | 35054 ft | 524 kts | 128° |
| 2026-04-18 07:53 | 56.31448 | -134.27906 | 35052 ft | 524 kts | 128° |
| 2026-04-18 07:54 | 56.26934 | -134.17552 | 35053 ft | 524 kts | 129° |
| 2026-04-18 07:54 | 56.22399 | -134.07270 | 35053 ft | 524 kts | 129° |
| 2026-04-18 07:55 | 56.17102 | -133.95333 | 35053 ft | 524 kts | 129° |
| 2026-04-18 07:55 | 56.13302 | -133.86807 | 35053 ft | 524 kts | 129° |
| 2026-04-18 07:56 | 56.08728 | -133.76590 | 35053 ft | 524 kts | 129° |
| 2026-04-18 07:56 | 56.04182 | -133.66474 | 35053 ft | 524 kts | 129° |
| 2026-04-18 07:57 | 55.99594 | -133.56308 | 35053 ft | 524 kts | 129° |
| 2026-04-18 07:57 | 55.94996 | -133.46164 | 35053 ft | 524 kts | 129° |
| 2026-04-18 07:58 | 55.88115 | -133.31004 | 35052 ft | 524 kts | 129° |
| 2026-04-18 07:59 | 55.83554 | -133.20936 | 35053 ft | 524 kts | 129° |
| 2026-04-18 07:59 | 55.78916 | -133.10911 | 35053 ft | 524 kts | 130° |
| 2026-04-18 08:00 | 55.74256 | -133.00879 | 35053 ft | 524 kts | 130° |
| 2026-04-18 08:00 | 55.69641 | -132.90956 | 35053 ft | 524 kts | 130° |
| 2026-04-18 08:01 | 55.64990 | -132.81006 | 35053 ft | 524 kts | 130° |
| 2026-04-18 08:01 | 55.60332 | -132.71113 | 35053 ft | 524 kts | 130° |
| 2026-04-18 08:02 | 55.55645 | -132.61202 | 35053 ft | 524 kts | 130° |
| 2026-04-18 08:02 | 55.50948 | -132.51307 | 35053 ft | 524 kts | 130° |
| 2026-04-18 08:03 | 55.46287 | -132.41503 | 35052 ft | 524 kts | 130° |
| 2026-04-18 08:03 | 55.41646 | -132.31548 | 35053 ft | 524 kts | 130° |
| 2026-04-18 08:04 | 55.36957 | -132.21670 | 35053 ft | 524 kts | 130° |
| 2026-04-18 08:04 | 55.32285 | -132.11911 | 35053 ft | 524 kts | 130° |
| 2026-04-18 08:05 | 55.27569 | -132.02108 | 35053 ft | 524 kts | 130° |
| 2026-04-18 08:05 | 55.22916 | -131.92330 | 35053 ft | 524 kts | 130° |
| 2026-04-18 08:06 | 55.18190 | -131.82608 | 35053 ft | 524 kts | 131° |
| 2026-04-18 08:06 | 55.13427 | -131.72885 | 35053 ft | 524 kts | 131° |
| 2026-04-18 08:07 | 55.08666 | -131.63254 | 35053 ft | 524 kts | 133° |
| 2026-04-18 08:07 | 55.03192 | -131.54894 | 35052 ft | 523 kts | 145° |
| 2026-04-18 08:08 | 54.97125 | -131.48051 | 35052 ft | 522 kts | 150° |
| 2026-04-18 08:08 | 54.90915 | -131.41454 | 35053 ft | 522 kts | 149° |
| 2026-04-18 08:09 | 54.84719 | -131.34856 | 35053 ft | 522 kts | 149° |
| 2026-04-18 08:09 | 54.78508 | -131.28257 | 35053 ft | 522 kts | 149° |
| 2026-04-18 08:10 | 54.72309 | -131.21685 | 35053 ft | 522 kts | 149° |
| 2026-04-18 08:10 | 54.66348 | -131.14632 | 35056 ft | 523 kts | 142° |
| 2026-04-18 08:11 | 54.60559 | -131.07019 | 35057 ft | 523 kts | 147° |
| 2026-04-18 08:11 | 54.54357 | -131.00483 | 35053 ft | 522 kts | 150° |
| 2026-04-18 08:12 | 54.48089 | -130.94165 | 35053 ft | 522 kts | 150° |
| 2026-04-18 08:12 | 54.41854 | -130.87806 | 35053 ft | 522 kts | 150° |
| 2026-04-18 08:13 | 54.35597 | -130.81412 | 35053 ft | 522 kts | 150° |
| 2026-04-18 08:13 | 54.29374 | -130.75004 | 35053 ft | 522 kts | 149° |
| 2026-04-18 08:14 | 54.23148 | -130.68563 | 35053 ft | 522 kts | 150° |
| 2026-04-18 08:14 | 54.16943 | -130.62217 | 35053 ft | 522 kts | 150° |
| 2026-04-18 08:15 | 54.10688 | -130.55858 | 35053 ft | 522 kts | 150° |
| 2026-04-18 08:15 | 54.04438 | -130.49532 | 35053 ft | 522 kts | 150° |
| 2026-04-18 08:16 | 53.98214 | -130.43254 | 35053 ft | 522 kts | 150° |
| 2026-04-18 08:16 | 53.91965 | -130.36974 | 35053 ft | 522 kts | 150° |
| 2026-04-18 08:17 | 53.85688 | -130.30688 | 35053 ft | 522 kts | 150° |
| 2026-04-18 08:17 | 53.79426 | -130.24440 | 35053 ft | 522 kts | 150° |
| 2026-04-18 08:18 | 53.73186 | -130.18234 | 35053 ft | 522 kts | 150° |
| 2026-04-18 08:18 | 53.66913 | -130.12017 | 35053 ft | 522 kts | 150° |
| 2026-04-18 08:19 | 53.60666 | -130.05848 | 35053 ft | 522 kts | 150° |
| 2026-04-18 08:19 | 53.54394 | -129.99676 | 35053 ft | 522 kts | 150° |
| 2026-04-18 08:20 | 53.48114 | -129.93517 | 35053 ft | 522 kts | 150° |
| 2026-04-18 08:20 | 53.41854 | -129.87398 | 35053 ft | 522 kts | 150° |
| 2026-04-18 08:21 | 53.35570 | -129.81278 | 35053 ft | 522 kts | 151° |
| 2026-04-18 08:21 | 53.29315 | -129.75180 | 35053 ft | 522 kts | 150° |
| 2026-04-18 08:22 | 53.23019 | -129.69053 | 35053 ft | 522 kts | 151° |
| 2026-04-18 08:22 | 53.16754 | -129.63036 | 35053 ft | 522 kts | 151° |
| 2026-04-18 08:23 | 53.10453 | -129.57005 | 35053 ft | 522 kts | 151° |
| 2026-04-18 08:23 | 53.04137 | -129.50970 | 35053 ft | 522 kts | 151° |
| 2026-04-18 08:24 | 52.97882 | -129.44962 | 35053 ft | 522 kts | 151° |
| 2026-04-18 08:24 | 52.91584 | -129.38932 | 35053 ft | 522 kts | 151° |
| 2026-04-18 08:25 | 52.85279 | -129.32917 | 35053 ft | 522 kts | 151° |
| 2026-04-18 08:25 | 52.78975 | -129.26923 | 35053 ft | 522 kts | 151° |
| 2026-04-18 08:26 | 52.72708 | -129.20973 | 35054 ft | 522 kts | 151° |
| 2026-04-18 08:26 | 52.66414 | -129.14927 | 35053 ft | 522 kts | 151° |
| 2026-04-18 08:27 | 52.60118 | -129.08954 | 35053 ft | 522 kts | 151° |
| 2026-04-18 08:27 | 52.53841 | -129.03037 | 35053 ft | 522 kts | 151° |
| 2026-04-18 08:28 | 52.47549 | -128.97073 | 35053 ft | 522 kts | 151° |
| 2026-04-18 08:28 | 52.41226 | -128.91155 | 35053 ft | 522 kts | 151° |
| 2026-04-18 08:29 | 52.34915 | -128.85291 | 35053 ft | 522 kts | 151° |
| 2026-04-18 08:29 | 52.28591 | -128.79428 | 35053 ft | 522 kts | 151° |
| 2026-04-18 08:30 | 52.22261 | -128.73570 | 35053 ft | 522 kts | 151° |
| 2026-04-18 08:30 | 52.15977 | -128.67784 | 35053 ft | 522 kts | 152° |
| 2026-04-18 08:31 | 52.09643 | -128.61977 | 35053 ft | 522 kts | 152° |
| 2026-04-18 08:31 | 52.03312 | -128.56194 | 35053 ft | 522 kts | 152° |
| 2026-04-18 08:32 | 51.96970 | -128.50420 | 35053 ft | 522 kts | 152° |
| 2026-04-18 08:32 | 51.90675 | -128.44660 | 35053 ft | 522 kts | 151° |
| 2026-04-18 08:33 | 51.84355 | -128.38851 | 35053 ft | 522 kts | 152° |
| 2026-04-18 08:33 | 51.78016 | -128.33086 | 35053 ft | 522 kts | 152° |
| 2026-04-18 08:34 | 51.71662 | -128.27340 | 35053 ft | 522 kts | 152° |
| 2026-04-18 08:34 | 51.65349 | -128.21653 | 35053 ft | 522 kts | 152° |
| 2026-04-18 08:35 | 51.59007 | -128.15959 | 35053 ft | 522 kts | 152° |
| 2026-04-18 08:35 | 51.52657 | -128.10277 | 35053 ft | 522 kts | 152° |
| 2026-04-18 08:36 | 51.46337 | -128.04639 | 35053 ft | 522 kts | 152° |
| 2026-04-18 08:36 | 51.41016 | -127.99907 | 35053 ft | 522 kts | 152° |
| 2026-04-18 08:37 | 51.34703 | -127.94309 | 35053 ft | 522 kts | 152° |
| 2026-04-18 08:37 | 51.27287 | -127.87755 | 35054 ft | 522 kts | 151° |
| 2026-04-18 08:38 | 51.22020 | -127.83115 | 34994 ft | 514 kts | 152° |
| 2026-04-18 08:38 | 51.15745 | -127.77604 | 34993 ft | 524 kts | 152° |
| 2026-04-18 08:39 | 51.09271 | -127.71935 | 34995 ft | 534 kts | 152° |
| 2026-04-18 08:39 | 51.02751 | -127.66245 | 34995 ft | 534 kts | 152° |
| 2026-04-18 08:40 | 50.96234 | -127.60571 | 34998 ft | 533 kts | 152° |
| 2026-04-18 08:40 | 50.89734 | -127.54885 | 35008 ft | 533 kts | 152° |
| 2026-04-18 08:41 | 50.83205 | -127.49257 | 34995 ft | 533 kts | 153° |
| 2026-04-18 08:41 | 50.76689 | -127.43662 | 35131 ft | 533 kts | 153° |
| 2026-04-18 08:42 | 50.70294 | -127.37771 | 35158 ft | 536 kts | 145° |
| 2026-04-18 08:42 | 50.64828 | -127.29793 | 35122 ft | 536 kts | 129° |
| 2026-04-18 08:43 | 50.60444 | -127.20313 | 35117 ft | 536 kts | 124° |
| 2026-04-18 08:43 | 50.56137 | -127.10707 | 35125 ft | 536 kts | 126° |
| 2026-04-18 08:44 | 50.51733 | -127.01333 | 35124 ft | 536 kts | 127° |
| 2026-04-18 08:44 | 50.47254 | -126.91946 | 35085 ft | 535 kts | 126° |
| 2026-04-18 08:45 | 50.42834 | -126.82501 | 35059 ft | 536 kts | 126° |
| 2026-04-18 08:45 | 50.38384 | -126.73126 | 35005 ft | 535 kts | 127° |
| 2026-04-18 08:46 | 50.33951 | -126.63871 | 35013 ft | 535 kts | 127° |
| 2026-04-18 08:46 | 50.29459 | -126.54539 | 35013 ft | 535 kts | 127° |
| 2026-04-18 08:47 | 50.24968 | -126.45243 | 34994 ft | 535 kts | 127° |
| 2026-04-18 08:47 | 50.20465 | -126.35960 | 34994 ft | 535 kts | 127° |
| 2026-04-18 08:48 | 50.15960 | -126.26703 | 34994 ft | 535 kts | 127° |
| 2026-04-18 08:48 | 50.11478 | -126.17525 | 34994 ft | 535 kts | 127° |
| 2026-04-18 08:49 | 50.06955 | -126.08295 | 35015 ft | 535 kts | 127° |
| 2026-04-18 08:49 | 50.02417 | -125.99069 | 35071 ft | 536 kts | 127° |
| 2026-04-18 08:50 | 49.97865 | -125.89845 | 35044 ft | 536 kts | 127° |
| 2026-04-18 08:50 | 49.93331 | -125.80691 | 35079 ft | 535 kts | 127° |
| 2026-04-18 08:51 | 49.88772 | -125.71516 | 35115 ft | 537 kts | 127° |
| 2026-04-18 08:51 | 49.84223 | -125.62394 | 35121 ft | 537 kts | 127° |
| 2026-04-18 08:52 | 49.79617 | -125.53189 | 35145 ft | 537 kts | 127° |
| 2026-04-18 08:52 | 49.75100 | -125.44078 | 35140 ft | 537 kts | 127° |
| 2026-04-18 08:53 | 49.70502 | -125.34974 | 35162 ft | 537 kts | 128° |
| 2026-04-18 08:53 | 49.65885 | -125.25889 | 35167 ft | 537 kts | 128° |
| 2026-04-18 08:54 | 49.61254 | -125.16794 | 35170 ft | 537 kts | 128° |
| 2026-04-18 08:54 | 49.56652 | -125.07784 | 35149 ft | 537 kts | 128° |
| 2026-04-18 08:55 | 49.52003 | -124.98752 | 35090 ft | 536 kts | 128° |
| 2026-04-18 08:55 | 49.47354 | -124.89753 | 35061 ft | 537 kts | 128° |
| 2026-04-18 08:56 | 49.42718 | -124.80808 | 35043 ft | 537 kts | 128° |
| 2026-04-18 08:56 | 49.38059 | -124.71844 | 35054 ft | 537 kts | 128° |
| 2026-04-18 08:57 | 49.31120 | -124.58330 | 34994 ft | 536 kts | 128° |
| 2026-04-18 08:57 | 49.26487 | -124.49410 | 34994 ft | 537 kts | 128° |
| 2026-04-18 08:58 | 49.21840 | -124.40439 | 34994 ft | 537 kts | 129° |
| 2026-04-18 08:58 | 49.17154 | -124.31558 | 34994 ft | 537 kts | 129° |
| 2026-04-18 08:59 | 49.12445 | -124.22662 | 34994 ft | 537 kts | 129° |
| 2026-04-18 08:59 | 49.07751 | -124.13807 | 34994 ft | 537 kts | 129° |
| 2026-04-18 09:00 | 49.03037 | -124.04945 | 34994 ft | 537 kts | 129° |
| 2026-04-18 09:00 | 48.98341 | -123.96161 | 35117 ft | 536 kts | 129° |
| 2026-04-18 09:01 | 48.93605 | -123.87327 | 35189 ft | 541 kts | 129° |
| 2026-04-18 09:01 | 48.88892 | -123.78365 | 35183 ft | 541 kts | 128° |
| 2026-04-18 09:02 | 48.84120 | -123.69486 | 35190 ft | 540 kts | 129° |
| 2026-04-18 09:02 | 48.79353 | -123.60689 | 35189 ft | 542 kts | 129° |
| 2026-04-18 09:03 | 48.74474 | -123.51933 | 35197 ft | 541 kts | 133° |
| 2026-04-18 09:03 | 48.68738 | -123.44624 | 35184 ft | 541 kts | 146° |
| 2026-04-18 09:04 | 48.62330 | -123.38591 | 35188 ft | 541 kts | 150° |
| 2026-04-18 09:04 | 48.55925 | -123.32722 | 35194 ft | 541 kts | 149° |
| 2026-04-18 09:05 | 48.49486 | -123.26769 | 35158 ft | 541 kts | 149° |
| 2026-04-18 09:05 | 48.43057 | -123.20831 | 35108 ft | 541 kts | 149° |
| 2026-04-18 09:06 | 48.36625 | -123.14898 | 35092 ft | 541 kts | 149° |
| 2026-04-18 09:06 | 48.30234 | -123.09030 | 35134 ft | 541 kts | 149° |
| 2026-04-18 09:07 | 48.23789 | -123.03140 | 35198 ft | 542 kts | 149° |
| 2026-04-18 09:07 | 48.17335 | -122.97262 | 35216 ft | 543 kts | 149° |
| 2026-04-18 09:08 | 48.10873 | -122.91395 | 35215 ft | 542 kts | 149° |
| 2026-04-18 09:08 | 48.04457 | -122.85585 | 35219 ft | 542 kts | 149° |
| 2026-04-18 09:09 | 47.97994 | -122.79686 | 35214 ft | 543 kts | 149° |
| 2026-04-18 09:09 | 47.91528 | -122.73810 | 35200 ft | 543 kts | 149° |
| 2026-04-18 09:10 | 47.85103 | -122.68014 | 35203 ft | 543 kts | 149° |
| 2026-04-18 09:10 | 47.78635 | -122.62202 | 35201 ft | 543 kts | 149° |
| 2026-04-18 09:11 | 47.72180 | -122.56419 | 35201 ft | 543 kts | 149° |
| 2026-04-18 09:11 | 47.65674 | -122.50560 | 35201 ft | 544 kts | 149° |
| 2026-04-18 09:12 | 47.59172 | -122.44780 | 35200 ft | 544 kts | 150° |
| 2026-04-18 09:12 | 47.52679 | -122.39033 | 35201 ft | 544 kts | 150° |
| 2026-04-18 09:13 | 47.46292 | -122.33178 | 35204 ft | 544 kts | 144° |
| 2026-04-18 09:13 | 47.40759 | -122.25538 | 35201 ft | 544 kts | 128° |
| 2026-04-18 09:14 | 47.36598 | -122.16204 | 35208 ft | 543 kts | 120° |
| 2026-04-18 09:14 | 47.32609 | -122.06805 | 35201 ft | 543 kts | 122° |
| 2026-04-18 09:15 | 47.29093 | -121.99026 | 35201 ft | 543 kts | 123° |
| 2026-04-18 09:15 | 47.24870 | -121.89784 | 35200 ft | 543 kts | 122° |
| 2026-04-18 09:16 | 47.20759 | -121.80523 | 35201 ft | 543 kts | 122° |
| 2026-04-18 09:16 | 47.16520 | -121.71280 | 35201 ft | 544 kts | 123° |
| 2026-04-18 09:17 | 47.12268 | -121.62060 | 35200 ft | 544 kts | 123° |
| 2026-04-18 09:17 | 47.08025 | -121.52869 | 35203 ft | 543 kts | 123° |
| 2026-04-18 09:18 | 47.03785 | -121.43722 | 35202 ft | 543 kts | 123° |
| 2026-04-18 09:18 | 46.99535 | -121.34607 | 35206 ft | 543 kts | 123° |
| 2026-04-18 09:19 | 46.95266 | -121.25481 | 35204 ft | 543 kts | 123° |
| 2026-04-18 09:19 | 46.90975 | -121.16335 | 35213 ft | 543 kts | 123° |
| 2026-04-18 09:20 | 46.86715 | -121.07243 | 35223 ft | 541 kts | 123° |
| 2026-04-18 09:20 | 46.82515 | -120.98167 | 35220 ft | 541 kts | 123° |
| 2026-04-18 09:21 | 46.78250 | -120.89093 | 35224 ft | 541 kts | 123° |
| 2026-04-18 09:21 | 46.74015 | -120.80092 | 35228 ft | 540 kts | 123° |
| 2026-04-18 09:22 | 46.69760 | -120.71050 | 35228 ft | 540 kts | 124° |
| 2026-04-18 09:22 | 46.65472 | -120.62082 | 35229 ft | 540 kts | 124° |
| 2026-04-18 09:23 | 46.61154 | -120.53076 | 35230 ft | 540 kts | 124° |
| 2026-04-18 09:23 | 46.56956 | -120.44341 | 35255 ft | 541 kts | 124° |
| 2026-04-18 09:24 | 46.52258 | -120.35642 | 35255 ft | 543 kts | 129° |
| 2026-04-18 09:24 | 46.47341 | -120.27307 | 35256 ft | 543 kts | 129° |
| 2026-04-18 09:25 | 46.42493 | -120.18880 | 35254 ft | 543 kts | 128° |
| 2026-04-18 09:25 | 46.37706 | -120.10431 | 35253 ft | 542 kts | 127° |
| 2026-04-18 09:26 | 46.32957 | -120.01994 | 35254 ft | 542 kts | 128° |
| 2026-04-18 09:26 | 46.28125 | -119.93596 | 35256 ft | 542 kts | 128° |
| 2026-04-18 09:27 | 46.23291 | -119.85212 | 35258 ft | 542 kts | 128° |
| 2026-04-18 09:27 | 46.18448 | -119.76823 | 35254 ft | 542 kts | 128° |
| 2026-04-18 09:28 | 46.13631 | -119.68521 | 35251 ft | 542 kts | 129° |
| 2026-04-18 09:28 | 46.08777 | -119.60188 | 35253 ft | 542 kts | 129° |
| 2026-04-18 09:29 | 46.03902 | -119.51843 | 35245 ft | 542 kts | 129° |
| 2026-04-18 09:29 | 45.99065 | -119.43582 | 35233 ft | 542 kts | 129° |
| 2026-04-18 09:30 | 45.94219 | -119.35247 | 35237 ft | 542 kts | 128° |
| 2026-04-18 09:30 | 45.89409 | -119.26963 | 35232 ft | 542 kts | 128° |
| 2026-04-18 09:31 | 45.84564 | -119.18662 | 35225 ft | 542 kts | 129° |
| 2026-04-18 09:31 | 45.79673 | -119.10410 | 35225 ft | 542 kts | 129° |
| 2026-04-18 09:32 | 45.74765 | -119.02151 | 35219 ft | 543 kts | 129° |
| 2026-04-18 09:32 | 45.70203 | -118.93646 | 35216 ft | 541 kts | 120° |
| 2026-04-18 09:33 | 45.66663 | -118.84157 | 35207 ft | 539 kts | 114° |
| 2026-04-18 09:33 | 45.63469 | -118.74436 | 35204 ft | 539 kts | 112° |
| 2026-04-18 09:34 | 45.60308 | -118.64766 | 35203 ft | 539 kts | 112° |
| 2026-04-18 09:34 | 45.57115 | -118.55074 | 35203 ft | 539 kts | 112° |
| 2026-04-18 09:35 | 45.53953 | -118.45439 | 35205 ft | 538 kts | 112° |
| 2026-04-18 09:35 | 45.50805 | -118.35734 | 35210 ft | 539 kts | 112° |
| 2026-04-18 09:36 | 45.47604 | -118.26042 | 35238 ft | 538 kts | 112° |
| 2026-04-18 09:36 | 45.44417 | -118.16414 | 35234 ft | 538 kts | 112° |
| 2026-04-18 09:37 | 45.41247 | -118.06804 | 35252 ft | 538 kts | 113° |
| 2026-04-18 09:37 | 45.38005 | -117.97183 | 35259 ft | 539 kts | 113° |
| 2026-04-18 09:38 | 45.34715 | -117.87604 | 35254 ft | 539 kts | 117° |
| 2026-04-18 09:38 | 45.32549 | -117.83311 | 35270 ft | 543 kts | 131° |
| 2026-04-18 09:38 | 45.29673 | -117.79804 | 35276 ft | 545 kts | 146° |
| 2026-04-18 09:39 | 45.26307 | -117.77380 | 35276 ft | 544 kts | 161° |
| 2026-04-18 09:39 | 45.22631 | -117.76166 | 35278 ft | 540 kts | 176° |
| 2026-04-18 09:39 | 45.18895 | -117.76237 | 35281 ft | 535 kts | 191° |
| 2026-04-18 09:39 | 45.15274 | -117.77371 | 35276 ft | 531 kts | 199° |
| 2026-04-18 09:40 | 45.08014 | -117.79385 | 35276 ft | 537 kts | 188° |
| 2026-04-18 09:40 | 45.00542 | -117.79835 | 35272 ft | 538 kts | 183° |
| 2026-04-18 09:41 | 44.93057 | -117.80208 | 35288 ft | 536 kts | 185° |
| 2026-04-18 09:41 | 44.85579 | -117.79844 | 35288 ft | 542 kts | 169° |
| 2026-04-18 09:42 | 44.82109 | -117.78230 | 35288 ft | 544 kts | 156° |
| 2026-04-18 09:42 | 44.78802 | -117.75439 | 35289 ft | 544 kts | 141° |
| 2026-04-18 09:42 | 44.73547 | -117.67825 | 35278 ft | 543 kts | 131° |
| 2026-04-18 09:43 | 44.68224 | -117.60251 | 35288 ft | 544 kts | 136° |
| 2026-04-18 09:43 | 44.62627 | -117.53175 | 35284 ft | 544 kts | 138° |
| 2026-04-18 09:44 | 44.57022 | -117.46060 | 35283 ft | 543 kts | 136° |
| 2026-04-18 09:44 | 44.51450 | -117.38876 | 35280 ft | 544 kts | 137° |
| 2026-04-18 09:45 | 44.45829 | -117.31746 | 35272 ft | 544 kts | 137° |
| 2026-04-18 09:45 | 44.40216 | -117.24646 | 35270 ft | 544 kts | 137° |
| 2026-04-18 09:46 | 44.34955 | -117.17063 | 35269 ft | 543 kts | 128° |
| 2026-04-18 09:46 | 44.30479 | -117.08589 | 35268 ft | 541 kts | 122° |
| 2026-04-18 09:47 | 44.26309 | -116.99800 | 35314 ft | 543 kts | 122° |
| 2026-04-18 09:47 | 44.22068 | -116.91024 | 35313 ft | 545 kts | 122° |
| 2026-04-18 09:48 | 44.17804 | -116.82360 | 35313 ft | 544 kts | 123° |
| 2026-04-18 09:48 | 44.13546 | -116.73644 | 35314 ft | 544 kts | 122° |
| 2026-04-18 09:49 | 44.09276 | -116.64921 | 35303 ft | 544 kts | 123° |
| 2026-04-18 09:49 | 44.04991 | -116.56257 | 35304 ft | 544 kts | 123° |
| 2026-04-18 09:50 | 44.01381 | -116.48988 | 35306 ft | 544 kts | 123° |
| 2026-04-18 09:50 | 43.96373 | -116.38940 | 35299 ft | 544 kts | 123° |
| 2026-04-18 09:51 | 43.92785 | -116.31761 | 35296 ft | 544 kts | 123° |
| 2026-04-18 09:51 | 43.88460 | -116.23130 | 35294 ft | 543 kts | 123° |
| 2026-04-18 09:52 | 43.84135 | -116.14528 | 35293 ft | 543 kts | 123° |
| 2026-04-18 09:52 | 43.79830 | -116.05909 | 35292 ft | 543 kts | 123° |
| 2026-04-18 09:53 | 43.75515 | -115.97372 | 35290 ft | 543 kts | 123° |
| 2026-04-18 09:53 | 43.71164 | -115.88829 | 35290 ft | 543 kts | 123° |
| 2026-04-18 09:54 | 43.66807 | -115.80291 | 35290 ft | 543 kts | 123° |
| 2026-04-18 09:54 | 43.62417 | -115.71753 | 35287 ft | 543 kts | 124° |
| 2026-04-18 09:55 | 43.57874 | -115.63499 | 35290 ft | 543 kts | 126° |
| 2026-04-18 09:55 | 43.53260 | -115.55218 | 35292 ft | 543 kts | 126° |
| 2026-04-18 09:56 | 43.48662 | -115.46928 | 35294 ft | 543 kts | 126° |
| 2026-04-18 09:56 | 43.44092 | -115.38693 | 35295 ft | 543 kts | 126° |
| 2026-04-18 09:57 | 43.39547 | -115.30402 | 35299 ft | 543 kts | 124° |
| 2026-04-18 09:57 | 43.34968 | -115.22075 | 35310 ft | 543 kts | 125° |
| 2026-04-18 09:58 | 43.30380 | -115.13807 | 35307 ft | 543 kts | 125° |
| 2026-04-18 09:58 | 43.25810 | -115.05605 | 35311 ft | 543 kts | 125° |
| 2026-04-18 09:59 | 43.21207 | -114.97371 | 35318 ft | 543 kts | 125° |
| 2026-04-18 10:00 | 43.14286 | -114.85034 | 35318 ft | 543 kts | 125° |
| 2026-04-18 10:00 | 43.09673 | -114.76841 | 35319 ft | 543 kts | 125° |
| 2026-04-18 10:01 | 43.05045 | -114.68642 | 35318 ft | 543 kts | 125° |
| 2026-04-18 10:01 | 43.00416 | -114.60465 | 35319 ft | 543 kts | 125° |
| 2026-04-18 10:02 | 42.95784 | -114.52304 | 35319 ft | 543 kts | 126° |
| 2026-04-18 10:02 | 42.91144 | -114.44153 | 35318 ft | 543 kts | 126° |
| 2026-04-18 10:03 | 42.86518 | -114.36047 | 35318 ft | 543 kts | 126° |
| 2026-04-18 10:03 | 42.81860 | -114.27910 | 35317 ft | 543 kts | 126° |
| 2026-04-18 10:04 | 42.77222 | -114.19818 | 35319 ft | 543 kts | 125° |
| 2026-04-18 10:04 | 42.72581 | -114.11682 | 35314 ft | 544 kts | 126° |
| 2026-04-18 10:05 | 42.67896 | -114.03590 | 35300 ft | 545 kts | 126° |
| 2026-04-18 10:05 | 42.63192 | -113.95489 | 35301 ft | 546 kts | 126° |
| 2026-04-18 10:06 | 42.58480 | -113.87382 | 35298 ft | 545 kts | 126° |
| 2026-04-18 10:06 | 42.54144 | -113.79032 | 35293 ft | 544 kts | 121° |
| 2026-04-18 10:07 | 42.50114 | -113.70326 | 35295 ft | 544 kts | 120° |
| 2026-04-18 10:07 | 42.46035 | -113.61679 | 35305 ft | 544 kts | 121° |
| 2026-04-18 10:08 | 42.41903 | -113.53093 | 35301 ft | 544 kts | 121° |
| 2026-04-18 10:08 | 42.37761 | -113.44496 | 35301 ft | 544 kts | 120° |
| 2026-04-18 10:09 | 42.33655 | -113.35882 | 35292 ft | 545 kts | 121° |
| 2026-04-18 10:09 | 42.29526 | -113.27332 | 35265 ft | 545 kts | 121° |
| 2026-04-18 10:10 | 42.25367 | -113.18769 | 35265 ft | 545 kts | 121° |
| 2026-04-18 10:10 | 42.21181 | -113.10177 | 35190 ft | 546 kts | 121° |
| 2026-04-18 10:11 | 42.17000 | -113.01624 | 35158 ft | 546 kts | 121° |
| 2026-04-18 10:11 | 42.12800 | -112.93056 | 35133 ft | 546 kts | 121° |
| 2026-04-18 10:12 | 42.08597 | -112.84505 | 35121 ft | 547 kts | 121° |
| 2026-04-18 10:12 | 42.04418 | -112.76027 | 35116 ft | 547 kts | 121° |
| 2026-04-18 10:13 | 42.00199 | -112.67492 | 35170 ft | 546 kts | 121° |
| 2026-04-18 10:13 | 41.96013 | -112.58957 | 35179 ft | 546 kts | 121° |
| 2026-04-18 10:14 | 41.91789 | -112.50486 | 35171 ft | 546 kts | 122° |
| 2026-04-18 10:14 | 41.87545 | -112.42006 | 35196 ft | 545 kts | 122° |
| 2026-04-18 10:15 | 41.83337 | -112.33613 | 35142 ft | 546 kts | 122° |
| 2026-04-18 10:15 | 41.78862 | -112.25361 | 35273 ft | 547 kts | 127° |
| 2026-04-18 10:16 | 41.73998 | -112.17559 | 35320 ft | 545 kts | 128° |
| 2026-04-18 10:16 | 41.69180 | -112.09829 | 35304 ft | 544 kts | 127° |
| 2026-04-18 10:17 | 41.64362 | -112.01962 | 35323 ft | 544 kts | 128° |
| 2026-04-18 10:17 | 41.59568 | -111.94113 | 35343 ft | 545 kts | 127° |
| 2026-04-18 10:18 | 41.54802 | -111.86212 | 35345 ft | 545 kts | 128° |
| 2026-04-18 10:18 | 41.50027 | -111.78385 | 35346 ft | 545 kts | 128° |
| 2026-04-18 10:19 | 41.45217 | -111.70540 | 35326 ft | 544 kts | 127° |
| 2026-04-18 10:19 | 41.40430 | -111.62755 | 35329 ft | 542 kts | 128° |
| 2026-04-18 10:20 | 41.35662 | -111.54980 | 35328 ft | 544 kts | 127° |
| 2026-04-18 10:20 | 41.30880 | -111.47219 | 35321 ft | 542 kts | 128° |
| 2026-04-18 10:21 | 41.26081 | -111.39502 | 35319 ft | 541 kts | 128° |
| 2026-04-18 10:21 | 41.21267 | -111.31778 | 35319 ft | 540 kts | 128° |
| 2026-04-18 10:22 | 41.16508 | -111.24119 | 35319 ft | 540 kts | 127° |
| 2026-04-18 10:22 | 41.12057 | -111.16094 | 35317 ft | 539 kts | 123° |
| 2026-04-18 10:23 | 41.07780 | -111.07912 | 35316 ft | 539 kts | 123° |
| 2026-04-18 10:23 | 41.03430 | -110.99785 | 35316 ft | 539 kts | 124° |
| 2026-04-18 10:24 | 40.99078 | -110.91754 | 35317 ft | 540 kts | 127° |
| 2026-04-18 10:24 | 40.94721 | -110.83677 | 35322 ft | 538 kts | 123° |
| 2026-04-18 10:25 | 40.90365 | -110.75575 | 35325 ft | 541 kts | 124° |
| 2026-04-18 10:25 | 40.85997 | -110.67532 | 35322 ft | 542 kts | 124° |
| 2026-04-18 10:26 | 40.81594 | -110.59463 | 35325 ft | 541 kts | 124° |
| 2026-04-18 10:26 | 40.77914 | -110.52738 | 35327 ft | 542 kts | 124° |
| 2026-04-18 10:27 | 40.72754 | -110.43335 | 35327 ft | 544 kts | 124° |
| 2026-04-18 10:27 | 40.68302 | -110.35246 | 35322 ft | 544 kts | 124° |
| 2026-04-18 10:28 | 40.64594 | -110.28525 | 35323 ft | 546 kts | 124° |
| 2026-04-18 10:28 | 40.59384 | -110.19105 | 35323 ft | 546 kts | 124° |
| 2026-04-18 10:29 | 40.55653 | -110.12376 | 35326 ft | 546 kts | 124° |
| 2026-04-18 10:29 | 40.51134 | -110.04246 | 35327 ft | 547 kts | 124° |
| 2026-04-18 10:30 | 40.46668 | -109.96231 | 35324 ft | 546 kts | 124° |
| 2026-04-18 10:30 | 40.42170 | -109.88180 | 35319 ft | 546 kts | 124° |
| 2026-04-18 10:31 | 40.37660 | -109.80129 | 35343 ft | 544 kts | 124° |
| 2026-04-18 10:31 | 40.33160 | -109.72116 | 35334 ft | 548 kts | 124° |
| 2026-04-18 10:32 | 40.28659 | -109.64053 | 35328 ft | 552 kts | 125° |
| 2026-04-18 10:32 | 40.24083 | -109.55951 | 35326 ft | 553 kts | 126° |
| 2026-04-18 10:33 | 40.19497 | -109.47877 | 35324 ft | 553 kts | 126° |
| 2026-04-18 10:33 | 40.14918 | -109.39829 | 35325 ft | 553 kts | 126° |
| 2026-04-18 10:34 | 40.10406 | -109.31673 | 35324 ft | 552 kts | 123° |
| 2026-04-18 10:34 | 40.06301 | -109.23181 | 35325 ft | 552 kts | 120° |
| 2026-04-18 10:35 | 40.02247 | -109.14655 | 35324 ft | 551 kts | 121° |
| 2026-04-18 10:35 | 39.98155 | -109.06257 | 35324 ft | 551 kts | 121° |
| 2026-04-18 10:36 | 39.94002 | -108.97808 | 35325 ft | 552 kts | 120° |
| 2026-04-18 10:36 | 39.89957 | -108.89460 | 35320 ft | 546 kts | 120° |
| 2026-04-18 10:37 | 39.85875 | -108.81111 | 35322 ft | 547 kts | 120° |
| 2026-04-18 10:37 | 39.81763 | -108.72762 | 35330 ft | 549 kts | 122° |
| 2026-04-18 10:38 | 39.77603 | -108.64351 | 35333 ft | 555 kts | 122° |
| 2026-04-18 10:38 | 39.73421 | -108.55919 | 35332 ft | 554 kts | 122° |
| 2026-04-18 10:39 | 39.69242 | -108.47517 | 35340 ft | 554 kts | 122° |
| 2026-04-18 10:39 | 39.65033 | -108.39078 | 35341 ft | 556 kts | 122° |
| 2026-04-18 10:40 | 39.60817 | -108.30647 | 35339 ft | 555 kts | 123° |
| 2026-04-18 10:40 | 39.56629 | -108.22293 | 35343 ft | 555 kts | 122° |
| 2026-04-18 10:41 | 39.52408 | -108.13896 | 35345 ft | 556 kts | 122° |
| 2026-04-18 10:41 | 39.48178 | -108.05503 | 35345 ft | 557 kts | 122° |
| 2026-04-18 10:42 | 39.43944 | -107.97125 | 35347 ft | 557 kts | 123° |
| 2026-04-18 10:42 | 39.39685 | -107.88719 | 35347 ft | 557 kts | 123° |
| 2026-04-18 10:43 | 39.35450 | -107.80382 | 35347 ft | 557 kts | 123° |
| 2026-04-18 10:43 | 39.31163 | -107.71964 | 35349 ft | 557 kts | 123° |
| 2026-04-18 10:44 | 39.26925 | -107.63647 | 35347 ft | 558 kts | 123° |
| 2026-04-18 10:44 | 39.22667 | -107.55270 | 35345 ft | 558 kts | 123° |
| 2026-04-18 10:45 | 39.18375 | -107.46938 | 35325 ft | 558 kts | 124° |
| 2026-04-18 10:45 | 39.14071 | -107.38604 | 35329 ft | 560 kts | 123° |
| 2026-04-18 10:46 | 39.09743 | -107.30233 | 35312 ft | 561 kts | 124° |
| 2026-04-18 10:46 | 39.05319 | -107.21914 | 35307 ft | 563 kts | 125° |
| 2026-04-18 10:47 | 39.00878 | -107.13616 | 35298 ft | 563 kts | 124° |
| 2026-04-18 10:47 | 38.96425 | -107.05267 | 35288 ft | 566 kts | 122° |
| 2026-04-18 10:48 | 38.92015 | -106.96916 | 35290 ft | 568 kts | 124° |
| 2026-04-18 10:48 | 38.87520 | -106.88564 | 35290 ft | 568 kts | 124° |
| 2026-04-18 10:49 | 38.83020 | -106.80220 | 35292 ft | 563 kts | 121° |
| 2026-04-18 10:49 | 38.78607 | -106.72039 | 35292 ft | 559 kts | 122° |
| 2026-04-18 10:50 | 38.74200 | -106.63780 | 35290 ft | 562 kts | 121° |
| 2026-04-18 10:50 | 38.69773 | -106.55516 | 35300 ft | 560 kts | 121° |
| 2026-04-18 10:51 | 38.65368 | -106.47318 | 35306 ft | 558 kts | 122° |
| 2026-04-18 10:51 | 38.60954 | -106.39128 | 35317 ft | 557 kts | 123° |
| 2026-04-18 10:52 | 38.56585 | -106.30939 | 35326 ft | 555 kts | 123° |
| 2026-04-18 10:52 | 38.52238 | -106.22809 | 35314 ft | 557 kts | 121° |
| 2026-04-18 10:53 | 38.47829 | -106.14629 | 35242 ft | 563 kts | 128° |
| 2026-04-18 10:53 | 38.43373 | -106.06392 | 35233 ft | 562 kts | 128° |
| 2026-04-18 10:54 | 38.38920 | -105.98188 | 35234 ft | 561 kts | 128° |
| 2026-04-18 10:54 | 38.34498 | -105.90062 | 35233 ft | 561 kts | 128° |
| 2026-04-18 10:55 | 38.30046 | -105.81900 | 35233 ft | 561 kts | 128° |
| 2026-04-18 10:55 | 38.25576 | -105.73727 | 35181 ft | 558 kts | 128° |
| 2026-04-18 10:55 | 38.23359 | -105.69681 | 34852 ft | 556 kts | 128° |
| 2026-04-18 10:56 | 38.21163 | -105.65676 | 34296 ft | 559 kts | 128° |
| 2026-04-18 10:56 | 38.18930 | -105.61611 | 33714 ft | 561 kts | 128° |
| 2026-04-18 10:56 | 38.16726 | -105.57513 | 33184 ft | 563 kts | 125° |
| 2026-04-18 10:56 | 38.14977 | -105.53024 | 32560 ft | 570 kts | 111° |
| 2026-04-18 10:57 | 38.14071 | -105.48125 | 32144 ft | 570 kts | 97° |
| 2026-04-18 10:57 | 38.13974 | -105.43102 | 31756 ft | 567 kts | 85° |
| 2026-04-18 10:57 | 38.14530 | -105.38146 | 31315 ft | 563 kts | 78° |
| 2026-04-18 10:57 | 38.15178 | -105.33290 | 30836 ft | 564 kts | 80° |
| 2026-04-18 10:58 | 38.15818 | -105.28359 | 30484 ft | 561 kts | 79° |
| 2026-04-18 10:58 | 38.16460 | -105.23471 | 30152 ft | 558 kts | 79° |
| 2026-04-18 10:58 | 38.17091 | -105.18663 | 29776 ft | 557 kts | 77° |
| 2026-04-18 10:58 | 38.17725 | -105.13816 | 29503 ft | 553 kts | 77° |
| 2026-04-18 10:59 | 38.18354 | -105.09003 | 29215 ft | 549 kts | 77° |
| 2026-04-18 10:59 | 38.18976 | -105.04226 | 28900 ft | 547 kts | 78° |
| 2026-04-18 10:59 | 38.19594 | -104.99457 | 28572 ft | 545 kts | 78° |
| 2026-04-18 10:59 | 38.20212 | -104.94680 | 28183 ft | 545 kts | 78° |
| 2026-04-18 11:00 | 38.20816 | -104.89991 | 27888 ft | 542 kts | 78° |
| 2026-04-18 11:00 | 38.21423 | -104.85270 | 27634 ft | 539 kts | 78° |
| 2026-04-18 11:00 | 38.22026 | -104.80562 | 27347 ft | 536 kts | 78° |
| 2026-04-18 11:00 | 38.22623 | -104.75881 | 27101 ft | 531 kts | 78° |
| 2026-04-18 11:01 | 38.23121 | -104.71299 | 26916 ft | 519 kts | 83° |
| 2026-04-18 11:01 | 38.23315 | -104.66750 | 26827 ft | 506 kts | 87° |
| 2026-04-18 11:01 | 38.23377 | -104.62351 | 26754 ft | 485 kts | 88° |
| 2026-04-18 11:02 | 38.23469 | -104.54137 | 26081 ft | 451 kts | 88° |
| 2026-04-18 11:02 | 38.23519 | -104.50187 | 25542 ft | 442 kts | 88° |
| 2026-04-18 11:02 | 38.23579 | -104.46313 | 24945 ft | 435 kts | 88° |
| 2026-04-18 11:02 | 38.23637 | -104.42490 | 24311 ft | 430 kts | 88° |
| 2026-04-18 11:03 | 38.23700 | -104.38716 | 23660 ft | 425 kts | 88° |
| 2026-04-18 11:03 | 38.23743 | -104.34959 | 23009 ft | 421 kts | 88° |
| 2026-04-18 11:03 | 38.23780 | -104.31240 | 22295 ft | 419 kts | 88° |
| 2026-04-18 11:03 | 38.23808 | -104.28793 | 21836 ft | 417 kts | 88° |
| 2026-04-18 11:04 | 38.23862 | -104.23881 | 20918 ft | 413 kts | 88° |
| 2026-04-18 11:04 | 38.23896 | -104.21464 | 20493 ft | 410 kts | 88° |
| 2026-04-18 11:04 | 38.23974 | -104.16680 | 19624 ft | 406 kts | 88° |
| 2026-04-18 11:04 | 38.24021 | -104.14256 | 19182 ft | 404 kts | 88° |
| 2026-04-18 11:05 | 38.24096 | -104.10700 | 18539 ft | 400 kts | 88° |
| 2026-04-18 11:05 | 38.24138 | -104.06034 | 17783 ft | 393 kts | 88° |
| 2026-04-18 11:05 | 38.24123 | -104.03742 | 17441 ft | 388 kts | 88° |
| 2026-04-18 11:05 | 38.24108 | -104.00341 | 16859 ft | 383 kts | 88° |
| 2026-04-18 11:06 | 38.24100 | -103.96965 | 16274 ft | 378 kts | 88° |
| 2026-04-18 11:06 | 38.24100 | -103.93631 | 15703 ft | 373 kts | 88° |
| 2026-04-18 11:06 | 38.24107 | -103.90401 | 15151 ft | 367 kts | 88° |
| 2026-04-18 11:06 | 38.24118 | -103.87128 | 14582 ft | 362 kts | 88° |
| 2026-04-18 11:07 | 38.24132 | -103.83997 | 14033 ft | 357 kts | 87° |
| 2026-04-18 11:07 | 38.24392 | -103.80881 | 13402 ft | 348 kts | 73° |
| 2026-04-18 11:07 | 38.25348 | -103.78080 | 12431 ft | 340 kts | 47° |
| 2026-04-18 11:07 | 38.26953 | -103.76168 | 12227 ft | 300 kts | 24° |
| 2026-04-18 11:08 | 38.28793 | -103.75279 | 11797 ft | 274 kts | 3° |
| 2026-04-18 11:08 | 38.30644 | -103.75425 | 11124 ft | 263 kts | 342° |
| 2026-04-18 11:08 | 38.32135 | -103.76637 | 10768 ft | 252 kts | 317° |
| 2026-04-18 11:08 | 38.32970 | -103.78557 | 10259 ft | 250 kts | 289° |
| 2026-04-18 11:09 | 38.33037 | -103.80788 | 9623 ft | 255 kts | 266° |
| 2026-04-18 11:09 | 38.32734 | -103.82955 | 9518 ft | 241 kts | 263° |
| 2026-04-18 11:09 | 38.32544 | -103.85008 | 9440 ft | 232 kts | 264° |
| 2026-04-18 11:09 | 38.32376 | -103.87022 | 9327 ft | 224 kts | 263° |
| 2026-04-18 11:10 | 38.32234 | -103.88980 | 9149 ft | 220 kts | 263° |
| 2026-04-18 11:10 | 38.32125 | -103.90924 | 8850 ft | 221 kts | 263° |
| 2026-04-18 11:10 | 38.32044 | -103.92880 | 8475 ft | 226 kts | 264° |
| 2026-04-18 11:10 | 38.31968 | -103.94889 | 8199 ft | 226 kts | 264° |
| 2026-04-18 11:11 | 38.31832 | -103.96861 | 8080 ft | 219 kts | 262° |
| 2026-04-18 11:11 | 38.31712 | -103.98752 | 7989 ft | 209 kts | 263° |
| 2026-04-18 11:11 | 38.31603 | -104.00584 | 7751 ft | 207 kts | 263° |
| 2026-04-18 11:11 | 38.31500 | -104.02393 | 7447 ft | 208 kts | 263° |
| 2026-04-18 11:12 | 38.31392 | -104.04239 | 7153 ft | 208 kts | 263° |
| 2026-04-18 11:12 | 38.31293 | -104.06066 | 6905 ft | 206 kts | 263° |
| 2026-04-18 11:12 | 38.31174 | -104.07904 | 6538 ft | 210 kts | 264° |
| 2026-04-18 11:12 | 38.30905 | -104.09646 | 6576 ft | 195 kts | 260° |
| 2026-04-18 11:13 | 38.30694 | -104.11399 | 6589 ft | 202 kts | 263° |
| 2026-04-18 11:13 | 38.30483 | -104.13188 | 6599 ft | 204 kts | 263° |
| 2026-04-18 11:13 | 38.30285 | -104.14970 | 6600 ft | 203 kts | 263° |
| 2026-04-18 11:13 | 38.30087 | -104.16750 | 6599 ft | 203 kts | 263° |
| 2026-04-18 11:14 | 38.29894 | -104.18535 | 6602 ft | 203 kts | 262° |
| 2026-04-18 11:14 | 38.29736 | -104.20291 | 6597 ft | 202 kts | 262° |
| 2026-04-18 11:14 | 38.29549 | -104.22069 | 6602 ft | 201 kts | 262° |
| 2026-04-18 11:14 | 38.29411 | -104.23849 | 6600 ft | 202 kts | 265° |
| 2026-04-18 11:15 | 38.29331 | -104.25633 | 6600 ft | 202 kts | 267° |
| 2026-04-18 11:15 | 38.29278 | -104.27420 | 6600 ft | 202 kts | 268° |
| 2026-04-18 11:15 | 38.29233 | -104.29185 | 6599 ft | 201 kts | 268° |
| 2026-04-18 11:15 | 38.29191 | -104.30896 | 6677 ft | 183 kts | 265° |
| 2026-04-18 11:16 | 38.29154 | -104.32427 | 6649 ft | 163 kts | 265° |
| 2026-04-18 11:16 | 38.29121 | -104.33800 | 6603 ft | 149 kts | 265° |
| 2026-04-18 11:16 | 38.29091 | -104.35079 | 6580 ft | 139 kts | 265° |
| 2026-04-18 11:16 | 38.29062 | -104.36306 | 6463 ft | 139 kts | 265° |
| 2026-04-18 11:17 | 38.29033 | -104.37520 | 6231 ft | 137 kts | 271° |
| 2026-04-18 11:17 | 38.29004 | -104.38716 | 6055 ft | 134 kts | 271° |
| 2026-04-18 11:17 | 38.28976 | -104.39904 | 5880 ft | 134 kts | 271° |
| 2026-04-18 11:17 | 38.28948 | -104.41089 | 5704 ft | 134 kts | 270° |
| 2026-04-18 11:18 | 38.28920 | -104.42278 | 5526 ft | 134 kts | 270° |
| 2026-04-18 11:18 | 38.28891 | -104.43470 | 5328 ft | 136 kts | 269° |
| 2026-04-18 11:18 | 38.28856 | -104.44658 | 5158 ft | 134 kts | 268° |
| 2026-04-18 11:18 | 38.28824 | -104.45845 | 4989 ft | 133 kts | 268° |
| 2026-04-18 11:19 | 38.28800 | -104.47021 | 4817 ft | 132 kts | 269° |
| 2026-04-18 11:19 | 38.28788 | -104.48165 | 4741 ft | 114 kts | 268° |